Terminal Aerodrome Forecast
Issued by NWS

Home | Current Version | Previous Version | Text Only | Print | Product List | Glossary On
Versions: 1 2 3 4 5 6 7 8 9 10 11 12 13 14 15 16 17 18
969
FTUS43 KGRR 121153
TAFMKG
TAF
KMKG 121153Z 1212/1312 28014G23KT 6SM -SN OVC050
     FM121300 29015G24KT 4SM -SN BR OVC030
     FM121500 30015G25KT 3SM -SN BLSN OVC025
     FM121800 31018G28KT 5SM -SN BLSN OVC035
     FM122200 33018G30KT 3SM -SN BLSN OVC035
     FM130500 32015G24KT 6SM -SN OVC035=

USA.gov is the U.S. government's official web portal to all federal, state and local government web resources and services.